Time;durP1;ratioP1;P1;durP2;ratioP2;P2;SDS_P1;SDS_P2;PMS_P1;PMS_P2;Temp;Humidity;BMP_temperature;BMP_pressure;BME280_temperature;BME280_humidity;BME280_pressure;Samples;Min_cycle;Max_cycle;Signal;HPM_P1;HPM_P2
2022/07/01 00:01:43;;;;;;;;;1.00;1.00;;;;;16.00;63.54;100783.56;5076530;28;45575;-65
2022/07/01 00:04:09;;;;;;;;;4.00;4.00;;;;;15.95;63.84;100779.50;5075679;27;45553;-64
2022/07/01 00:06:35;;;;;;;;;2.50;2.25;;;;;15.90;63.84;100780.63;5076205;27;45392;-65
2022/07/01 00:09:00;;;;;;;;;3.25;3.25;;;;;15.88;64.28;100784.31;5076879;27;45445;-65
2022/07/01 00:11:26;;;;;;;;;5.75;2.75;;;;;15.88;64.23;100793.09;5076814;27;45519;-64
2022/07/01 00:13:51;;;;;;;;;1.75;1.75;;;;;15.84;64.10;100778.28;5075241;28;45387;-64
2022/07/01 00:16:17;;;;;;;;;3.50;2.00;;;;;15.87;64.46;100787.88;5075992;27;45497;-65
2022/07/01 00:18:43;;;;;;;;;2.00;2.00;;;;;15.85;64.34;100790.59;5076010;27;45317;-65
2022/07/01 00:21:08;;;;;;;;;2.00;2.00;;;;;15.83;64.61;100787.19;5076356;27;45283;-65
2022/07/01 00:23:34;;;;;;;;;2.00;2.00;;;;;15.83;64.79;100792.47;5075424;28;45497;-65
2022/07/01 00:25:59;;;;;;;;;2.75;2.75;;;;;15.82;64.76;100789.94;5075714;28;45433;-64
2022/07/01 00:28:25;;;;;;;;;3.00;3.00;;;;;15.82;64.63;100798.72;5076120;27;45183;-65
2022/07/01 00:30:51;;;;;;;;;2.75;2.75;;;;;15.78;64.63;100792.78;5076237;27;45293;-65
2022/07/01 00:33:16;;;;;;;;;3.00;1.50;;;;;15.76;64.39;100801.75;5075570;27;46376;-64
2022/07/01 00:35:41;;;;;;;;;5.00;3.00;;;;;15.68;64.81;100798.69;5075452;27;45394;-65
2022/07/01 00:38:10;;;;;;;;;2.25;2.00;;;;;15.65;65.16;100804.19;5075897;28;45346;-64
2022/07/01 00:40:36;;;;;;;;;3.25;1.75;;;;;15.61;64.98;100803.50;5076213;28;45607;-68
2022/07/01 00:43:01;;;;;;;;;3.25;3.25;;;;;15.62;65.30;100810.53;5075949;27;47042;-65
2022/07/01 00:45:26;;;;;;;;;3.50;3.00;;;;;15.65;65.34;100809.47;5075588;27;45423;-65
2022/07/01 00:47:52;;;;;;;;;5.00;3.00;;;;;15.60;64.65;100812.41;5076183;27;45723;-66
2022/07/01 00:50:18;;;;;;;;;1.00;1.00;;;;;15.54;65.44;100803.00;5076418;27;45570;-67
2022/07/01 00:52:45;;;;;;;;;3.00;3.00;;;;;15.55;65.29;100815.31;5075188;28;46380;-65
2022/07/01 00:55:12;;;;;;;;;2.00;2.00;;;;;15.54;65.38;100815.41;5075148;27;45231;-66
2022/07/01 00:57:40;;;;;;;;;5.25;2.50;;;;;15.52;65.46;100812.00;5073898;28;45226;-64
2022/07/01 01:00:13;;;;;;;;;4.00;2.00;;;;;15.50;65.28;100817.38;5075659;27;45501;-64
2022/07/01 01:02:38;;;;;;;;;2.50;1.75;;;;;15.47;65.25;100813.13;5074757;27;45429;-64
2022/07/01 01:05:06;;;;;;;;;2.50;2.00;;;;;15.44;65.52;100815.94;5074861;27;45435;-65
2022/07/01 01:07:32;;;;;;;;;2.25;2.25;;;;;15.43;65.67;100816.03;5075469;28;45451;-65
2022/07/01 01:09:59;;;;;;;;;2.00;2.00;;;;;15.40;65.56;100817.06;5075596;27;45608;-65
2022/07/01 01:12:28;;;;;;;;;2.00;2.00;;;;;15.34;65.90;100817.38;5090641;27;47176;-65
2022/07/01 01:14:55;;;;;;;;;1.50;1.50;;;;;15.29;65.92;100825.59;5074934;27;45266;-65
2022/07/01 01:17:22;;;;;;;;;1.00;1.00;;;;;15.23;66.16;100822.44;5074879;27;45465;-65
2022/07/01 01:19:48;;;;;;;;;2.75;1.50;;;;;15.16;66.32;100832.53;5075658;27;45452;-65
2022/07/01 01:22:15;;;;;;;;;3.25;1.25;;;;;15.10;66.39;100825.78;5074738;27;46140;-66
2022/07/01 01:24:41;;;;;;;;;5.50;2.00;;;;;15.12;66.46;100833.66;5074918;27;45282;-66
2022/07/01 01:27:08;;;;;;;;;3.00;1.00;;;;;15.08;66.51;100845.34;5090687;27;45393;-65
2022/07/01 01:29:35;;;;;;;;;2.00;2.00;;;;;15.06;66.83;100834.00;5075782;27;45271;-67
2022/07/01 01:32:01;;;;;;;;;3.50;3.50;;;;;15.01;66.74;100843.03;5075247;28;46864;-66
2022/07/01 01:34:27;;;;;;;;;2.00;2.00;;;;;14.99;67.05;100838.75;5074624;28;45387;-66
2022/07/01 01:36:53;;;;;;;;;2.00;2.00;;;;;14.96;67.04;100838.91;5074942;27;45344;-65
2022/07/01 01:39:19;;;;;;;;;2.00;2.00;;;;;14.91;67.10;100844.47;5075230;27;45450;-66
2022/07/01 01:41:45;;;;;;;;;1.75;1.75;;;;;14.87;67.48;100842.94;5074433;27;47468;-65
2022/07/01 01:44:11;;;;;;;;;2.25;2.25;;;;;14.81;67.53;100848.53;5074692;28;45305;-65
2022/07/01 01:46:37;;;;;;;;;2.50;2.50;;;;;14.79;67.44;100853.06;5075181;27;45365;-64
2022/07/01 01:49:04;;;;;;;;;2.75;2.75;;;;;14.72;67.97;100848.09;5074286;28;45303;-65
2022/07/01 01:51:29;;;;;;;;;3.00;1.00;;;;;14.71;68.09;100845.53;5074509;27;45374;-67
2022/07/01 01:53:55;;;;;;;;;1.75;1.75;;;;;14.65;68.46;100843.19;5090399;27;46230;-66
2022/07/01 01:56:21;;;;;;;;;2.00;2.00;;;;;14.67;68.41;100844.81;5075266;27;45331;-66
2022/07/01 01:58:47;;;;;;;;;2.75;2.00;;;;;14.64;68.43;100842.31;5075396;27;45417;-66
2022/07/01 02:01:13;;;;;;;;;2.50;2.50;;;;;14.68;68.76;100857.09;5074618;28;46092;-65
2022/07/01 02:03:40;;;;;;;;;3.75;3.75;;;;;14.66;68.85;100858.16;5074906;28;45434;-65
2022/07/01 02:06:07;;;;;;;;;10.00;10.00;;;;;14.64;68.82;100860.84;5074847;28;45356;-66
2022/07/01 02:08:32;;;;;;;;;6.00;4.50;;;;;14.60;68.97;100854.00;5074100;28;45497;-65
2022/07/01 02:10:58;;;;;;;;;7.50;3.50;;;;;14.62;68.80;100868.03;5077652;27;45358;-67
2022/07/01 02:13:25;;;;;;;;;3.00;3.00;;;;;14.63;68.94;100868.91;5077950;27;45524;-67
2022/07/01 02:15:51;;;;;;;;;2.00;2.00;;;;;14.63;68.94;100863.59;5077947;27;45318;-67
2022/07/01 02:18:16;;;;;;;;;2.75;2.00;;;;;14.61;68.96;100855.72;5078092;28;45412;-66
2022/07/01 02:20:42;;;;;;;;;3.75;2.00;;;;;14.62;68.94;100865.38;5077576;28;46572;-67
2022/07/01 02:23:09;;;;;;;;;3.00;3.00;;;;;14.63;68.88;100861.78;5078384;27;45901;-65
2022/07/01 02:25:35;;;;;;;;;3.75;2.00;;;;;14.61;68.99;100866.31;5078095;27;45320;-67
2022/07/01 02:28:00;;;;;;;;;2.75;2.75;;;;;14.60;69.36;100864.59;5078052;27;45542;-67
2022/07/01 02:30:26;;;;;;;;;2.25;2.25;;;;;14.60;69.33;100864.59;5077111;27;46370;-66
2022/07/01 02:32:52;;;;;;;;;2.00;2.00;;;;;14.59;69.46;100871.72;5077840;27;45427;-67
2022/07/01 02:35:17;;;;;;;;;3.75;2.75;;;;;14.59;69.80;100873.47;5077971;27;45341;-66
2022/07/01 02:37:43;;;;;;;;;3.00;3.00;;;;;14.58;69.98;100875.28;5078081;27;45701;-67
2022/07/01 02:40:09;;;;;;;;;2.25;2.25;;;;;14.56;69.87;100873.63;5077957;28;45383;-67
2022/07/01 02:42:35;;;;;;;;;3.00;3.00;;;;;14.56;69.92;100879.81;5077628;27;45431;-67
2022/07/01 02:45:03;;;;;;;;;4.00;4.00;;;;;14.55;70.04;100875.44;5077323;27;45345;-67
2022/07/01 02:47:37;;;;;;;;;2.00;2.00;;;;;14.53;70.12;100877.31;5077536;27;46039;-66
2022/07/01 02:50:03;;;;;;;;;2.00;2.00;;;;;14.56;70.17;100871.00;5076894;27;45307;-67
2022/07/01 02:52:29;;;;;;;;;2.00;2.00;;;;;14.52;69.96;100867.66;5077361;27;45837;-66
2022/07/01 02:54:55;;;;;;;;;3.50;2.00;;;;;14.54;70.18;100876.38;5077442;27;45866;-68
2022/07/01 02:57:20;;;;;;;;;3.25;2.25;;;;;14.55;70.17;100882.53;5057403;28;45240;-67
2022/07/01 02:59:46;;;;;;;;;2.00;2.00;;;;;14.51;70.11;100880.97;5057117;28;45389;-67
2022/07/01 03:02:11;;;;;;;;;3.50;3.00;;;;;14.52;69.89;100898.56;5075104;28;45405;-67
2022/07/01 03:04:36;;;;;;;;;4.00;3.00;;;;;14.51;69.96;100895.06;5077392;27;45868;-67
2022/07/01 03:07:02;;;;;;;;;2.50;2.50;;;;;14.46;69.78;100878.59;5077784;27;45554;-67
2022/07/01 03:09:27;;;;;;;;;3.00;3.00;;;;;14.50;70.01;100893.38;5076893;27;47558;-67
2022/07/01 03:11:53;;;;;;;;;2.00;2.00;;;;;14.46;70.05;100889.16;5076766;28;45401;-67
2022/07/01 03:14:18;;;;;;;;;2.00;2.00;;;;;14.44;70.65;100881.28;5077200;27;45375;-66
2022/07/01 03:16:46;;;;;;;;;3.00;3.00;;;;;14.40;70.23;100882.38;5077051;27;45697;-66
2022/07/01 03:19:12;;;;;;;;;4.25;2.75;;;;;14.40;70.20;100887.69;5076634;27;46206;-67
2022/07/01 03:21:37;;;;;;;;;2.00;2.00;;;;;14.40;70.24;100895.63;5076635;27;45452;-67
2022/07/01 03:24:03;;;;;;;;;2.50;2.50;;;;;14.38;70.46;100888.72;5077024;28;45263;-65
2022/07/01 03:26:28;;;;;;;;;2.25;1.00;;;;;14.36;70.40;100896.72;5076937;27;45421;-67
2022/07/01 03:28:53;;;;;;;;;2.25;2.25;;;;;14.36;70.53;100893.22;5076619;28;45337;-67
2022/07/01 03:31:19;;;;;;;;;2.25;1.50;;;;;14.32;70.51;100892.50;5076032;28;45539;-66
2022/07/01 03:33:44;;;;;;;;;2.75;2.75;;;;;14.33;70.69;100894.22;5076596;27;45894;-66
2022/07/01 03:36:09;;;;;;;;;2.75;2.75;;;;;14.31;70.49;100891.66;5075287;28;45340;-66
2022/07/01 03:38:35;;;;;;;;;3.50;2.00;;;;;14.34;70.10;100897.75;5076431;28;46106;-67
2022/07/01 03:41:01;;;;;;;;;3.00;3.00;;;;;14.32;70.34;100903.09;5076666;28;45444;-67
2022/07/01 03:43:26;;;;;;;;;3.50;3.50;;;;;14.28;70.09;100902.38;5076264;28;45467;-67
2022/07/01 03:45:51;;;;;;;;;2.50;2.50;;;;;14.30;69.76;100918.19;5076247;28;45480;-66
2022/07/01 03:48:17;;;;;;;;;2.25;2.25;;;;;14.25;70.23;100909.63;5076291;27;45338;-67
2022/07/01 03:50:42;;;;;;;;;2.00;2.00;;;;;14.27;69.93;100918.34;5076519;27;45732;-66
2022/07/01 03:55:51;;;;;;;;;2.00;2.00;;;;;14.19;70.03;100916.06;5076439;28;45413;-66
2022/07/01 03:58:16;;;;;;;;;3.00;3.00;;;;;14.24;69.85;100921.16;5076288;27;46211;-67
2022/07/01 04:00:42;;;;;;;;;2.00;2.00;;;;;14.24;69.69;100921.16;5076408;28;45247;-66
2022/07/01 04:03:07;;;;;;;;;3.00;3.00;;;;;14.17;69.64;100915.28;5076376;27;45383;-66
2022/07/01 04:05:34;;;;;;;;;3.00;3.00;;;;;14.17;69.74;100924.09;5075771;28;45971;-67
2022/07/01 04:08:02;;;;;;;;;2.50;2.00;;;;;14.15;69.85;100919.81;5074694;28;48269;-66
2022/07/01 04:10:28;;;;;;;;;3.75;3.50;;;;;14.15;69.81;100928.63;5075802;27;45311;-67
2022/07/01 04:12:54;;;;;;;;;2.75;2.75;;;;;14.17;69.90;100929.41;5075954;27;45422;-67
2022/07/01 04:15:19;;;;;;;;;3.00;3.00;;;;;14.14;69.75;100926.91;5075674;27;45484;-67
2022/07/01 04:17:44;;;;;;;;;3.50;2.00;;;;;14.13;69.57;100932.25;5075509;27;46582;-67
2022/07/01 04:20:10;;;;;;;;;3.75;3.00;;;;;14.09;69.80;100939.50;5076257;28;45404;-67
2022/07/01 04:22:35;;;;;;;;;3.00;1.75;;;;;14.03;69.85;100926.56;5076314;27;45239;-67
2022/07/01 04:25:03;;;;;;;;;2.25;2.25;;;;;14.05;70.31;100939.72;5075869;27;45221;-67
2022/07/01 04:27:32;;;;;;;;;9.50;9.50;;;;;14.01;69.76;100936.38;5075628;27;45818;-67
2022/07/01 04:29:57;;;;;;;;;4.00;2.75;;;;;13.98;70.14;100939.16;5075453;28;45461;-67
2022/07/01 04:32:23;;;;;;;;;2.25;2.25;;;;;14.01;70.26;100942.50;5074392;28;45441;-67
2022/07/01 04:34:48;;;;;;;;;4.75;4.75;;;;;14.01;70.40;100946.97;5074959;28;45654;-68
2022/07/01 04:37:14;;;;;;;;;2.50;2.50;;;;;13.96;70.69;100933.94;5075908;28;46626;-67
2022/07/01 04:39:39;;;;;;;;;3.00;3.00;;;;;14.01;70.80;100933.72;5075607;27;47595;-67
2022/07/01 04:42:05;;;;;;;;;3.00;3.00;;;;;14.05;70.39;100940.59;5075559;28;45348;-67
2022/07/01 04:44:35;;;;;;;;;3.00;3.00;;;;;14.04;70.53;100944.16;5075498;27;45181;-67
2022/07/01 04:47:02;;;;;;;;;3.00;3.00;;;;;14.02;70.38;100946.03;5075023;27;46300;-67
2022/07/01 04:49:28;;;;;;;;;2.00;2.00;;;;;14.06;70.62;100949.34;5075536;27;45448;-67
2022/07/01 04:51:54;;;;;;;;;3.50;3.00;;;;;14.07;70.03;100959.00;5075437;27;45298;-67
2022/07/01 04:54:20;;;;;;;;;3.75;2.00;;;;;14.06;70.37;100952.88;5075439;27;45486;-66
2022/07/01 04:56:46;;;;;;;;;4.25;3.00;;;;;14.09;70.35;100959.78;5075412;28;46473;-66
2022/07/01 04:59:12;;;;;;;;;2.75;2.75;;;;;14.11;70.36;100965.84;5075630;27;45184;-66
2022/07/01 05:01:38;;;;;;;;;3.00;3.00;;;;;14.24;70.22;100969.63;5075393;27;45168;-67
2022/07/01 05:04:03;;;;;;;;;4.50;3.00;;;;;14.54;69.52;100963.75;5075381;27;45247;-66
2022/07/01 05:06:29;;;;;;;;;3.75;2.00;;;;;14.94;68.68;100966.16;5075020;28;46201;-68
2022/07/01 05:08:54;;;;;;;;;4.50;3.00;;;;;15.45;67.26;100973.19;5074915;28;45202;-67
2022/07/01 05:11:19;;;;;;;;;3.00;3.00;;;;;15.87;66.31;100968.25;5075187;27;46303;-67
2022/07/01 05:13:46;;;;;;;;;5.75;2.75;;;;;16.32;64.96;100979.00;5075179;27;45397;-67
2022/07/01 05:16:11;;;;;;;;;3.00;3.00;;;;;16.72;64.09;100973.16;5074895;28;46268;-67
2022/07/01 05:24:06;;;;;;;;;3.75;2.75;;;;;17.93;60.77;100968.34;5057350;28;45367;-68
2022/07/01 05:26:32;;;;;;;;;3.00;3.00;;;;;18.23;60.04;100976.19;5074899;27;46941;-67
2022/07/01 05:28:57;;;;;;;;;2.00;2.00;;;;;18.28;58.39;100969.69;5074846;28;45317;-68
2022/07/01 05:31:22;;;;;;;;;2.00;2.00;;;;;18.23;58.29;100965.53;5074409;28;49636;-67
2022/07/01 05:33:48;;;;;;;;;3.00;1.25;;;;;18.14;57.91;100971.47;5075095;27;45378;-68
2022/07/01 05:36:14;;;;;;;;;1.25;1.25;;;;;18.05;57.33;100961.44;5075117;27;45534;-66
2022/07/01 05:38:40;;;;;;;;;2.00;2.00;;;;;17.93;57.43;100969.19;5074585;27;45429;-68
2022/07/01 05:41:06;;;;;;;;;0.50;0.50;;;;;17.94;57.40;100970.06;5074419;28;45341;-69
2022/07/01 05:43:31;;;;;;;;;1.00;1.00;;;;;17.86;57.22;100967.88;5076281;28;45547;-67
2022/07/01 05:45:57;;;;;;;;;1.25;1.25;;;;;17.85;56.89;100982.16;5078011;27;45467;-67
2022/07/01 05:48:22;;;;;;;;;4.00;2.25;;;;;17.78;57.30;100971.06;5078588;27;45310;-67
2022/07/01 05:50:48;;;;;;;;;2.75;2.75;;;;;17.76;57.71;100972.97;5077912;27;45380;-68
2022/07/01 05:53:14;;;;;;;;;1.00;1.00;;;;;17.73;57.14;100973.16;5078899;27;45281;-68
2022/07/01 05:55:39;;;;;;;;;2.00;2.00;;;;;17.72;57.14;100975.91;5077468;28;45450;-66
2022/07/01 05:58:08;;;;;;;;;3.75;2.00;;;;;17.56;57.12;100974.25;5078196;27;45346;-67
2022/07/01 06:00:33;;;;;;;;;2.00;2.00;;;;;17.50;57.37;100985.25;5077821;27;45497;-69
2022/07/01 06:02:59;;;;;;;;;3.25;3.00;;;;;17.41;57.62;100983.19;5076640;28;45513;-68
2022/07/01 06:05:24;;;;;;;;;2.25;2.25;;;;;17.34;57.53;100980.03;5077139;28;46310;-68
2022/07/01 06:07:49;;;;;;;;;2.00;2.00;;;;;17.22;57.43;100976.34;5077818;28;45494;-67
2022/07/01 06:10:15;;;;;;;;;1.75;1.75;;;;;17.11;57.04;100984.97;5077762;28;45488;-68
2022/07/01 06:12:40;;;;;;;;;3.75;3.50;;;;;16.97;57.21;100988.50;5093752;27;45324;-69
2022/07/01 06:15:11;;;;;;;;;4.50;1.50;;;;;16.79;57.62;100988.59;5075727;28;46063;-68
2022/07/01 06:17:39;;;;;;;;;1.00;1.00;;;;;16.58;57.56;100993.41;5077065;27;45317;-67
2022/07/01 06:20:05;;;;;;;;;1.00;1.00;;;;;16.45;57.75;100998.59;5077234;27;45349;-69
2022/07/01 06:22:31;;;;;;;;;1.00;1.00;;;;;16.28;57.54;100994.25;5088477;27;45464;-68
2022/07/01 06:24:56;;;;;;;;;1.00;1.00;;;;;16.17;57.64;101001.97;5097780;27;45334;-67
2022/07/01 06:27:22;;;;;;;;;1.00;1.00;;;;;15.96;57.89;100999.59;5080216;27;45349;-68
2022/07/01 06:29:47;;;;;;;;;2.00;0.75;;;;;15.76;58.03;101006.84;5078006;27;45203;-66
2022/07/01 06:32:13;;;;;;;;;0.50;0.50;;;;;15.63;58.69;101014.59;5077346;27;45483;-66
2022/07/01 06:34:39;;;;;;;;;1.00;1.00;;;;;15.53;58.83;101008.09;5076451;28;46105;-66
2022/07/01 06:37:05;;;;;;;;;0.00;0.00;;;;;15.44;59.40;101003.28;5092887;27;45458;-67
2022/07/01 06:39:30;;;;;;;;;5.00;1.50;;;;;15.40;59.34;101017.66;5077317;27;45609;-67
2022/07/01 06:41:56;;;;;;;;;2.00;1.00;;;;;15.33;59.78;101010.03;5077237;27;45503;-69
2022/07/01 06:44:22;;;;;;;;;1.00;1.00;;;;;15.28;60.00;101012.06;5077077;28;45769;-67
2022/07/01 06:46:47;;;;;;;;;3.00;1.00;;;;;15.28;60.27;101011.19;5076948;27;45414;-66
2022/07/01 06:49:13;;;;;;;;;2.00;1.50;;;;;15.26;59.91;101013.06;5077255;27;45458;-67
2022/07/01 06:51:39;;;;;;;;;2.00;2.00;;;;;15.31;59.82;101022.50;5075818;27;45502;-68
2022/07/01 06:54:04;;;;;;;;;0.75;0.50;;;;;15.27;59.78;101006.81;5076345;27;45686;-68
2022/07/01 06:56:30;;;;;;;;;1.25;1.25;;;;;15.38;59.85;101015.09;5075758;27;45327;-68
2022/07/01 06:58:56;;;;;;;;;0.00;0.00;;;;;15.42;60.08;101021.06;5077001;27;45395;-70
2022/07/01 07:01:21;;;;;;;;;4.00;1.25;;;;;15.48;60.03;101018.09;5077452;27;45248;-69
2022/07/01 07:03:47;;;;;;;;;3.00;3.00;;;;;15.57;60.13;101020.22;5097725;27;46693;-71
2022/07/01 07:06:12;;;;;;;;;2.75;1.75;;;;;15.67;60.72;101023.25;5092354;27;45211;-65
2022/07/01 07:08:38;;;;;;;;;1.75;1.75;;;;;15.74;59.83;101026.41;5076677;28;45512;-67
2022/07/01 07:11:04;;;;;;;;;1.00;1.00;;;;;15.80;59.59;101027.88;5094100;27;45642;-66
2022/07/01 07:13:29;;;;;;;;;4.50;1.50;;;;;15.81;59.26;101022.47;5078134;27;46443;-68
2022/07/01 07:15:55;;;;;;;;;2.00;2.00;;;;;15.88;58.74;101018.56;5091930;27;45251;-69
2022/07/01 07:18:20;;;;;;;;;1.50;1.50;;;;;15.90;58.06;101016.72;5076507;27;45453;-73
2022/07/01 07:20:48;;;;;;;;;1.00;1.00;;;;;15.97;57.85;101021.69;5089508;27;45313;-71
2022/07/01 07:23:14;;;;;;;;;3.00;1.00;;;;;16.03;56.60;101026.66;5092471;27;45807;-70
2022/07/01 07:25:39;;;;;;;;;5.25;2.25;;;;;16.09;55.73;101018.34;5076487;28;45420;-71
2022/07/01 07:28:05;;;;;;;;;1.75;0.50;;;;;16.18;55.48;101016.94;5076258;28;45396;-69
2022/07/01 07:30:30;;;;;;;;;1.00;1.00;;;;;16.26;55.36;101009.41;5076618;27;45668;-72
2022/07/01 07:32:56;;;;;;;;;1.00;1.00;;;;;16.33;55.21;101013.41;5075790;27;45828;-71
2022/07/01 07:35:21;;;;;;;;;0.75;0.75;;;;;16.41;55.45;101010.31;5076604;27;45287;-70
2022/07/01 07:37:46;;;;;;;;;3.50;0.25;;;;;16.50;54.70;101015.09;5075930;27;45196;-70
2022/07/01 07:40:17;;;;;;;;;1.25;1.00;;;;;16.55;54.06;101016.63;5076337;27;45449;-71
2022/07/01 07:42:44;;;;;;;;;1.00;0.25;;;;;16.63;53.73;101014.38;5075402;27;46521;-70
2022/07/01 07:45:11;;;;;;;;;1.00;1.00;;;;;16.68;53.79;101014.13;5076319;27;45397;-65
2022/07/01 07:47:36;;;;;;;;;0.50;0.50;;;;;16.74;53.28;101021.72;5076661;27;45551;-70
2022/07/01 07:50:03;;;;;;;;;2.00;0.75;;;;;16.78;53.56;101005.50;5082042;28;45534;-69
2022/07/01 07:52:28;;;;;;;;;0.25;0.00;;;;;16.86;53.16;101018.34;5084461;27;45847;-72
2022/07/01 07:54:54;;;;;;;;;3.00;1.00;;;;;16.94;53.11;101013.41;5080057;27;45920;-70
2022/07/01 07:57:19;;;;;;;;;2.25;1.00;;;;;17.01;52.84;101018.38;5077143;27;45383;-71
2022/07/01 07:59:45;;;;;;;;;5.75;5.00;;;;;17.17;53.38;101021.81;5076946;27;45334;-72
2022/07/01 08:02:10;;;;;;;;;1.75;1.75;;;;;17.31;52.89;101012.13;5075597;27;46340;-73
2022/07/01 08:04:36;;;;;;;;;2.00;2.00;;;;;17.45;50.98;101024.59;5076074;27;45357;-75
2022/07/01 08:07:01;;;;;;;;;2.75;2.25;;;;;17.52;50.88;101023.25;5074825;27;45667;-72
2022/07/01 08:09:27;;;;;;;;;0.00;0.00;;;;;17.56;50.70;101018.63;5076314;27;45499;-71
2022/07/01 08:11:53;;;;;;;;;0.50;0.00;;;;;17.66;50.50;101030.38;5076259;27;46733;-74
2022/07/01 08:14:18;;;;;;;;;2.00;2.00;;;;;17.73;50.53;101025.50;5076197;27;45502;-71
2022/07/01 08:16:43;;;;;;;;;1.00;1.00;;;;;17.79;49.78;101025.13;5076076;27;45367;-71
2022/07/01 08:19:09;;;;;;;;;1.00;1.00;;;;;17.86;50.09;101029.09;5076457;27;45564;-72
2022/07/01 08:21:34;;;;;;;;;1.00;1.00;;;;;17.96;50.13;101030.22;5075932;27;45259;-72
2022/07/01 08:24:00;;;;;;;;;1.75;1.50;;;;;18.06;49.94;101035.00;5075974;27;45379;-73
2022/07/01 08:26:25;;;;;;;;;3.00;0.75;;;;;18.16;49.22;101028.13;5076313;27;45331;-72
2022/07/01 08:28:50;;;;;;;;;1.00;1.00;;;;;18.21;49.30;101030.47;5076963;27;45264;-73
2022/07/01 08:31:17;;;;;;;;;1.00;0.00;;;;;18.30;48.25;101035.19;5076047;27;46295;-73
2022/07/01 08:33:42;;;;;;;;;2.00;2.00;;;;;18.36;48.05;101045.44;5075965;28;45215;-73
2022/07/01 08:36:09;;;;;;;;;2.00;2.00;;;;;18.41;47.93;101047.81;5075897;27;45385;-72
2022/07/01 08:38:35;;;;;;;;;0.75;0.75;;;;;18.48;47.76;101043.78;5076130;27;45546;-72
2022/07/01 08:41:01;;;;;;;;;1.50;1.50;;;;;18.57;47.43;101046.78;5075493;27;45637;-72
2022/07/01 08:43:27;;;;;;;;;0.00;0.00;;;;;18.62;47.31;101050.88;5075728;27;45453;-69
2022/07/01 08:45:53;;;;;;;;;0.00;0.00;;;;;18.61;47.17;101040.28;5075843;27;45479;-73
2022/07/01 08:48:18;;;;;;;;;0.00;0.00;;;;;18.62;46.44;101042.88;5075638;27;45356;-73
2022/07/01 08:50:44;;;;;;;;;4.00;4.00;;;;;18.60;46.86;101033.25;5075429;27;45372;-73
2022/07/01 08:53:12;;;;;;;;;0.25;0.25;;;;;18.65;46.60;101044.47;5074016;28;45548;-72
2022/07/01 08:58:23;;;;;;;;;1.00;1.00;;;;;18.95;46.39;101057.53;5075841;28;45278;-73
2022/07/01 09:00:49;;;;;;;;;4.75;2.75;;;;;19.17;45.97;101056.09;5075280;27;46273;-74
2022/07/01 09:03:14;;;;;;;;;0.00;0.00;;;;;19.28;45.69;101058.03;5075154;27;45231;-74
2022/07/01 09:05:49;;;;;;;;;2.00;2.00;;;;;19.28;45.29;101058.03;5075458;27;45290;-73
2022/07/01 09:08:14;;;;;;;;;2.00;2.00;;;;;19.31;45.64;101057.81;5075428;27;45287;-73
2022/07/01 09:10:40;;;;;;;;;0.50;0.50;;;;;19.46;44.94;101068.38;5073502;28;46616;-73
2022/07/01 09:13:11;;;;;;;;;2.75;1.00;;;;;19.55;44.71;101073.88;5073824;28;46141;-73
2022/07/01 09:15:39;;;;;;;;;2.00;2.00;;;;;19.68;44.47;101070.38;5075427;27;45253;-73
2022/07/01 09:18:16;;;;;;;;;3.50;3.50;;;;;19.79;45.04;101067.78;5091831;27;45243;-73
2022/07/01 09:20:47;;;;;;;;;1.75;1.75;;;;;19.73;43.99;101064.69;5078746;27;46270;-72
2022/07/01 09:23:17;;;;;;;;;3.75;3.00;;;;;19.76;44.27;101072.47;5078374;27;45339;-72
2022/07/01 09:25:51;;;;;;;;;5.50;0.50;;;;;19.95;44.01;101072.06;5078931;27;45439;-72
2022/07/01 09:28:22;;;;;;;;;6.00;6.00;;;;;20.13;44.09;101080.53;5079887;27;45354;-72
2022/07/01 09:30:54;;;;;;;;;1.75;1.75;;;;;20.32;43.53;101080.03;5080505;27;46182;-74
2022/07/01 09:33:21;;;;;;;;;5.25;3.25;;;;;20.50;43.20;101071.63;5082285;27;45467;-74
2022/07/01 09:35:51;;;;;;;;;0.50;0.00;;;;;20.73;43.01;101075.25;5079090;27;45203;-73
2022/07/01 09:38:18;;;;;;;;;1.50;1.50;;;;;20.96;42.84;101073.56;5079014;27;45449;-73
2022/07/01 09:40:55;;;;;;;;;0.00;0.00;;;;;21.30;42.56;101075.44;5094442;27;47577;-73
2022/07/01 09:43:28;;;;;;;;;2.50;1.00;;;;;21.52;42.23;101069.25;5078718;27;45251;-72
2022/07/01 09:46:05;;;;;;;;;0.00;0.00;;;;;21.60;42.05;101074.00;5078877;28;45408;-73
2022/07/01 09:48:33;;;;;;;;;0.00;0.00;;;;;21.60;41.38;101072.16;5078573;27;45397;-72
2022/07/01 09:51:00;;;;;;;;;0.00;0.00;;;;;21.57;41.61;101077.75;5078420;27;45339;-73
2022/07/01 09:53:26;;;;;;;;;3.00;1.25;;;;;21.63;42.39;101071.09;5078308;27;45481;-73
2022/07/01 09:55:52;;;;;;;;;8.50;8.50;;;;;21.65;41.80;101068.28;5078216;27;45335;-72
2022/07/01 09:58:17;;;;;;;;;0.00;0.00;;;;;21.55;41.03;101068.16;5078622;27;45366;-71
2022/07/01 10:00:43;;;;;;;;;2.50;2.50;;;;;21.59;41.24;101072.28;5078082;27;45374;-71
2022/07/01 10:03:10;;;;;;;;;0.25;0.00;;;;;21.73;40.06;101069.41;5078401;27;45312;-72
2022/07/01 10:05:47;;;;;;;;;0.00;0.00;;;;;21.77;40.27;101067.34;5077047;28;45343;-73
2022/07/01 10:08:46;;;;;;;;;0.00;0.00;;;;;21.92;40.44;101073.28;5078383;27;45283;-73
2022/07/01 10:12:09;;;;;;;;;1.00;1.00;;;;;21.78;40.13;101062.81;5077861;28;45457;-74
2022/07/01 10:14:39;;;;;;;;;1.00;1.00;;;;;21.62;40.12;101081.88;5075932;27;45376;-72
2022/07/01 10:17:05;;;;;;;;;1.50;1.50;;;;;21.51;40.36;101074.72;5078096;27;45320;-71
2022/07/01 10:19:32;;;;;;;;;7.25;4.25;;;;;21.65;40.51;101065.63;5078569;27;45247;-73
2022/07/01 10:22:25;;;;;;;;;0.25;0.25;;;;;22.12;39.98;101084.19;5078777;27;45255;-72
2022/07/01 10:24:50;;;;;;;;;3.50;2.00;;;;;22.40;39.85;101073.91;5078052;27;45449;-73
2022/07/01 10:27:24;;;;;;;;;0.00;0.00;;;;;22.49;39.20;101077.66;5078453;27;45468;-73
2022/07/01 10:30:13;;;;;;;;;0.50;0.50;;;;;22.41;39.31;101080.97;5077485;27;45353;-72
2022/07/01 10:32:49;;;;;;;;;2.00;2.00;;;;;22.40;39.26;101077.41;5077793;28;46679;-72
2022/07/01 10:35:14;;;;;;;;;2.00;1.00;;;;;22.60;39.46;101073.13;5077814;27;45401;-73
2022/07/01 10:38:00;;;;;;;;;4.00;4.00;;;;;22.94;38.68;101071.25;5077613;27;45474;-73
2022/07/01 10:40:46;;;;;;;;;2.00;2.00;;;;;23.19;38.55;101080.75;5077846;27;45233;-72
2022/07/01 10:43:16;;;;;;;;;2.00;0.00;;;;;23.33;38.69;101080.41;5077831;27;45310;-73
2022/07/01 10:45:45;;;;;;;;;7.50;7.50;;;;;23.32;38.80;101085.91;5077612;27;45225;-72
2022/07/01 10:48:19;;;;;;;;;1.50;1.50;;;;;23.30;38.38;101080.69;5076784;28;45461;-72
2022/07/01 10:50:47;;;;;;;;;1.00;1.00;;;;;23.15;37.35;101074.78;5077689;27;45492;-72
2022/07/01 10:53:12;;;;;;;;;4.75;1.00;;;;;23.10;38.15;101071.63;5076630;27;46096;-70
2022/07/01 10:55:40;;;;;;;;;2.75;2.75;;;;;22.97;38.01;101065.63;5076603;27;45328;-69
2022/07/01 10:58:05;;;;;;;;;2.00;1.00;;;;;22.71;38.53;101076.72;5077545;27;45404;-70
2022/07/01 11:00:34;;;;;;;;;1.00;1.00;;;;;22.42;38.72;101077.31;5077921;28;45539;-69
2022/07/01 11:03:07;;;;;;;;;1.00;1.00;;;;;22.15;39.26;101075.91;5079675;27;46547;-73
2022/07/01 11:05:35;;;;;;;;;5.00;3.00;;;;;22.07;39.73;101078.34;5086258;27;45254;-73
2022/07/01 11:08:01;;;;;;;;;5.50;4.00;;;;;22.21;39.75;101080.75;5081149;27;45337;-73
2022/07/01 11:10:27;;;;;;;;;2.00;2.00;;;;;22.30;38.76;101085.38;5082354;27;45590;-76
2022/07/01 11:12:52;;;;;;;;;4.25;3.00;;;;;22.34;38.25;101085.97;5077860;27;45528;-74
2022/07/01 11:15:18;;;;;;;;;0.00;0.00;;;;;22.37;38.43;101087.56;5077425;27;45291;-72
2022/07/01 11:17:45;;;;;;;;;2.00;2.00;;;;;22.35;38.63;101084.16;5076825;27;45367;-70
2022/07/01 11:20:11;;;;;;;;;1.00;1.00;;;;;22.36;38.57;101085.88;5076893;27;45575;-73
2022/07/01 11:22:37;;;;;;;;;5.00;3.25;;;;;22.39;38.36;101085.59;5076516;27;46279;-74
2022/07/01 11:25:11;;;;;;;;;3.00;3.00;;;;;22.38;38.85;101081.22;5077302;27;45350;-73
2022/07/01 11:27:37;;;;;;;;;1.00;1.00;;;;;22.48;38.49;101084.88;5092656;27;45179;-72
2022/07/01 11:30:14;;;;;;;;;5.00;3.75;;;;;22.60;38.67;101081.16;5076168;28;45616;-73
2022/07/01 11:32:43;;;;;;;;;4.25;1.25;;;;;22.63;38.01;101068.47;5077162;27;46483;-73
2022/07/01 11:40:55;;;;;;;;;0.50;0.50;;;;;;;;5077111;28;45229;-72
2022/07/01 11:43:23;;;;;;;;;4.00;1.00;;;;;22.72;37.48;101070.38;5077872;28;45457;-72